CheckWX is a tool to help pilots better visualize weather data.  It is not intended as a substitute for an official pre-flight weather briefing.

05:21:56 UTC

KADC METAR
Wadena Municipal Airport
Wadena, Minnesota, USA
Current

27 mins ago

KADC 200455Z AUTO 11004KT 10SM SCT070 M13/M15 A3018 RMK AO2
Observed
Feb-20 @ 04:55 UTC
Wind
  • 110° at 4 KTS
Visibility
16,093 meters
Flight Rules
VFR
Cloud Levels
  • Scattered at 7,000' AGL
Temperature
-13°C / 9°F
Dewpoint
-15°C / 5°F
Humidity
85%
Altimeter
30.18" Hg
Pressure
1022.02 hPa
Previous

47 mins ago

KADC 200435Z AUTO 13005KT 10SM SCT070 M12/M14 A3019 RMK AO2
Observed
Feb-20 @ 04:35 UTC
Wind
  • 130° at 5 KTS
Visibility
16,093 meters
Flight Rules
VFR
Cloud Levels
  • Scattered at 7,000' AGL
Temperature
-12°C / 10°F
Dewpoint
-14°C / 7°F
Humidity
85%
Altimeter
30.19" Hg
Pressure
1022.32 hPa
Previous

1 hour ago

KADC 200416Z AUTO 13004KT 7SM -SN SCT060 OVC070 M12/M14 A3020 RMK AO2
Observed
Feb-20 @ 04:16 UTC
Wind
  • 130° at 4 KTS
Visibility
11,265 meters
Flight Rules
VFR
Conditions
Light Snow
Cloud Levels
  • Scattered at 6,000' AGL
  • Overcast at 7,000' AGL
Temperature
-12°C / 10°F
Dewpoint
-14°C / 7°F
Humidity
85%
Altimeter
30.2" Hg
Pressure
1022.72 hPa